Time;durP1;ratioP1;P1;durP2;ratioP2;P2;SDS_P1;SDS_P2;PMS_P1;PMS_P2;Temp;Humidity;BMP_temperature;BMP_pressure;BME280_temperature;BME280_humidity;BME280_pressure;Samples;Min_cycle;Max_cycle;Signal;HPM_P1;HPM_P2
2023/03/16 00:00:41;;;;;;;10.85;2.22;;;;;;;;;;5024881;28;20033;-62
2023/03/16 00:03:08;;;;;;;12.43;1.90;;;;;;;;;;5026700;28;20047;-63
2023/03/16 00:05:35;;;;;;;12.38;3.42;;;;;;;;;;5034584;28;20450;-62
2023/03/16 00:08:02;;;;;;;10.65;2.70;;;;;;;;;;5025078;28;20046;-62
2023/03/16 00:10:28;;;;;;;6.07;1.95;;;;;;;;;;5024623;28;20033;-61
2023/03/16 00:12:55;;;;;;;5.75;1.83;;;;;;;;;;5024909;28;20048;-59
2023/03/16 00:15:22;;;;;;;6.63;2.05;;;;;;;;;;5022964;28;20041;-62
2023/03/16 00:17:49;;;;;;;8.50;2.10;;;;;;;;;;5024648;28;20029;-62
2023/03/16 00:20:17;;;;;;;8.55;2.08;;;;;;;;;;5023880;28;20068;-62
2023/03/16 00:22:44;;;;;;;7.47;1.88;;;;;;;;;;5025290;28;20041;-62
2023/03/16 00:25:13;;;;;;;4.82;1.70;;;;;;;;;;5025452;28;20034;-59
2023/03/16 00:27:40;;;;;;;6.25;1.73;;;;;;;;;;5022316;28;20115;-59
2023/03/16 00:30:07;;;;;;;5.18;1.63;;;;;;;;;;5024313;28;20548;-60
2023/03/16 00:32:34;;;;;;;8.32;1.63;;;;;;;;;;5025065;28;20052;-62
2023/03/16 00:35:01;;;;;;;12.25;3.97;;;;;;;;;;5024898;28;20047;-62
2023/03/16 00:37:28;;;;;;;10.23;4.03;;;;;;;;;;5021517;28;20215;-63
2023/03/16 00:39:55;;;;;;;6.55;2.10;;;;;;;;;;5026206;28;20040;-59
2023/03/16 00:42:26;;;;;;;4.75;1.55;;;;;;;;;;5023415;28;20187;-60
2023/03/16 00:44:56;;;;;;;9.65;1.30;;;;;;;;;;5024569;28;20037;-60
2023/03/16 00:47:24;;;;;;;8.95;1.83;;;;;;;;;;5022697;28;20037;-62
2023/03/16 00:49:50;;;;;;;3.58;1.20;;;;;;;;;;5025309;28;20045;-62
2023/03/16 00:52:17;;;;;;;5.90;1.30;;;;;;;;;;5024333;28;20284;-60
2023/03/16 00:54:45;;;;;;;3.30;1.35;;;;;;;;;;5024015;28;20099;-60
2023/03/16 00:57:13;;;;;;;4.88;1.63;;;;;;;;;;5023361;28;20099;-62
2023/03/16 00:59:39;;;;;;;5.93;1.92;;;;;;;;;;5025683;28;20044;-60
2023/03/16 01:02:07;;;;;;;4.55;1.40;;;;;;;;;;5028626;28;20032;-60
2023/03/16 01:04:38;;;;;;;4.80;1.70;;;;;;;;;;5038654;28;20836;-62
2023/03/16 01:07:05;;;;;;;5.25;1.27;;;;;;;;;;5028066;28;20080;-62
2023/03/16 01:09:35;;;;;;;7.32;1.40;;;;;;;;;;5026193;28;20040;-62
2023/03/16 01:12:06;;;;;;;6.13;1.60;;;;;;;;;;5028030;28;20155;-63
2023/03/16 01:14:36;;;;;;;4.00;1.42;;;;;;;;;;5025761;28;20262;-60
2023/03/16 01:17:05;;;;;;;7.88;1.92;;;;;;;;;;5039053;28;20059;-60
2023/03/16 01:19:32;;;;;;;9.32;2.40;;;;;;;;;;5028312;28;20041;-62
2023/03/16 01:21:59;;;;;;;4.85;1.33;;;;;;;;;;5028876;28;20614;-63
2023/03/16 01:24:26;;;;;;;4.63;1.25;;;;;;;;;;5026683;28;20042;-60
2023/03/16 01:26:53;;;;;;;7.30;1.70;;;;;;;;;;5026534;28;20080;-61
2023/03/16 01:29:20;;;;;;;4.47;1.40;;;;;;;;;;5028157;28;20037;-62
2023/03/16 01:31:49;;;;;;;5.57;1.90;;;;;;;;;;5023055;28;20049;-63
2023/03/16 01:34:17;;;;;;;8.00;2.03;;;;;;;;;;5021351;28;20663;-59
2023/03/16 01:36:48;;;;;;;3.58;1.38;;;;;;;;;;5026961;28;20033;-58
2023/03/16 01:39:14;;;;;;;4.30;1.70;;;;;;;;;;5026077;28;20080;-61
2023/03/16 01:41:41;;;;;;;9.35;2.15;;;;;;;;;;5026094;28;20052;-59
2023/03/16 01:44:13;;;;;;;4.97;1.98;;;;;;;;;;5026482;28;20041;-61
2023/03/16 01:46:41;;;;;;;4.18;1.75;;;;;;;;;;5025947;28;20041;-59
2023/03/16 01:49:16;;;;;;;5.13;1.80;;;;;;;;;;5027038;28;20029;-60
2023/03/16 01:51:45;;;;;;;4.72;2.17;;;;;;;;;;5027611;28;20481;-59
2023/03/16 01:54:13;;;;;;;5.55;1.70;;;;;;;;;;5027215;28;20818;-58
2023/03/16 01:56:54;;;;;;;7.78;1.60;;;;;;;;;;5025204;28;20140;-61
2023/03/16 01:59:21;;;;;;;5.88;1.60;;;;;;;;;;5026979;28;20517;-62
2023/03/16 02:01:50;;;;;;;4.43;1.58;;;;;;;;;;5029089;28;20490;-61
2023/03/16 02:04:29;;;;;;;5.00;1.75;;;;;;;;;;5026732;28;20110;-63
2023/03/16 02:06:56;;;;;;;6.00;1.63;;;;;;;;;;5026130;28;20071;-62
2023/03/16 02:09:24;;;;;;;5.80;1.92;;;;;;;;;;5025815;28;20041;-62
2023/03/16 02:11:51;;;;;;;5.97;1.52;;;;;;;;;;5026564;28;20041;-58
2023/03/16 02:14:18;;;;;;;6.32;1.92;;;;;;;;;;5026344;28;20048;-59
2023/03/16 02:16:46;;;;;;;6.60;1.83;;;;;;;;;;5025171;28;20063;-60
2023/03/16 02:19:16;;;;;;;5.10;1.77;;;;;;;;;;5025172;28;20041;-61
2023/03/16 02:21:48;;;;;;;6.50;2.00;;;;;;;;;;5027247;28;20051;-61
2023/03/16 02:24:15;;;;;;;3.95;1.92;;;;;;;;;;5026249;28;20155;-60
2023/03/16 02:26:54;;;;;;;4.70;1.77;;;;;;;;;;5024914;28;20037;-62
2023/03/16 02:29:24;;;;;;;5.82;2.35;;;;;;;;;;5024975;28;20042;-61
2023/03/16 02:31:52;;;;;;;7.07;2.25;;;;;;;;;;5028115;28;20063;-60
2023/03/16 02:34:19;;;;;;;7.22;1.98;;;;;;;;;;5024944;28;20053;-60
2023/03/16 02:36:47;;;;;;;7.13;2.33;;;;;;;;;;5023487;28;20108;-60
2023/03/16 02:39:14;;;;;;;6.30;2.30;;;;;;;;;;5027557;28;20556;-62
2023/03/16 02:41:41;;;;;;;5.00;2.10;;;;;;;;;;5023748;28;20041;-62
2023/03/16 02:44:13;;;;;;;5.45;2.25;;;;;;;;;;5025614;28;20044;-59
2023/03/16 02:46:42;;;;;;;4.88;2.30;;;;;;;;;;5023811;28;20076;-60
2023/03/16 02:49:24;;;;;;;7.25;2.70;;;;;;;;;;5037045;28;20049;-58
2023/03/16 02:51:50;;;;;;;6.25;2.13;;;;;;;;;;5057958;28;20462;-62
2023/03/16 02:54:17;;;;;;;8.95;3.72;;;;;;;;;;5026283;28;20056;-64
2023/03/16 02:56:44;;;;;;;7.53;2.90;;;;;;;;;;5024825;28;20072;-59
2023/03/16 02:59:11;;;;;;;9.63;2.70;;;;;;;;;;5025948;28;20045;-61
2023/03/16 03:01:37;;;;;;;8.02;2.88;;;;;;;;;;5025288;28;20457;-58
2023/03/16 03:04:05;;;;;;;10.45;2.78;;;;;;;;;;5026729;28;20099;-58
2023/03/16 03:06:31;;;;;;;11.90;2.63;;;;;;;;;;5023268;28;20088;-59
2023/03/16 03:08:58;;;;;;;7.57;2.22;;;;;;;;;;5025357;28;20041;-61
2023/03/16 03:11:25;;;;;;;10.13;2.80;;;;;;;;;;5026781;28;20121;-59
2023/03/16 03:13:52;;;;;;;5.18;2.20;;;;;;;;;;5027937;28;20041;-61
2023/03/16 03:16:18;;;;;;;5.68;2.30;;;;;;;;;;5025245;28;20051;-59
2023/03/16 03:18:45;;;;;;;13.95;2.33;;;;;;;;;;5026510;28;20108;-60
2023/03/16 03:21:12;;;;;;;12.43;2.78;;;;;;;;;;5025693;28;20033;-60
2023/03/16 03:23:38;;;;;;;6.82;2.60;;;;;;;;;;5022848;28;20046;-60
2023/03/16 03:26:05;;;;;;;7.95;2.55;;;;;;;;;;5023680;28;21002;-62
2023/03/16 03:28:35;;;;;;;5.88;2.65;;;;;;;;;;5036074;28;20146;-62
2023/03/16 03:31:01;;;;;;;9.02;2.75;;;;;;;;;;5026490;28;20033;-61
2023/03/16 03:33:28;;;;;;;7.97;2.92;;;;;;;;;;5025685;28;20048;-61
2023/03/16 03:36:00;;;;;;;6.65;2.38;;;;;;;;;;5023402;28;20071;-61
2023/03/16 03:38:27;;;;;;;7.25;2.35;;;;;;;;;;5023200;28;20393;-62
2023/03/16 03:40:58;;;;;;;7.50;2.60;;;;;;;;;;5023643;28;20047;-60
2023/03/16 03:43:25;;;;;;;7.85;2.33;;;;;;;;;;5025801;28;20049;-60
2023/03/16 03:45:58;;;;;;;7.65;2.60;;;;;;;;;;5025234;28;20409;-61
2023/03/16 03:48:25;;;;;;;10.68;2.67;;;;;;;;;;5023244;28;20041;-61
2023/03/16 03:50:52;;;;;;;10.27;2.67;;;;;;;;;;5025411;28;20041;-60
2023/03/16 03:53:18;;;;;;;6.40;2.35;;;;;;;;;;5023930;28;20105;-60
2023/03/16 03:55:46;;;;;;;12.25;2.83;;;;;;;;;;5025096;28;20040;-59
2023/03/16 03:58:13;;;;;;;10.40;2.97;;;;;;;;;;5025974;28;20150;-62
2023/03/16 04:00:39;;;;;;;10.07;2.85;;;;;;;;;;5026229;28;20048;-59
2023/03/16 04:03:06;;;;;;;8.68;2.53;;;;;;;;;;5024435;28;20044;-62
2023/03/16 04:05:33;;;;;;;7.85;2.63;;;;;;;;;;5022427;28;20223;-61
2023/03/16 04:07:59;;;;;;;8.45;3.08;;;;;;;;;;5035588;28;20037;-60
2023/03/16 04:10:27;;;;;;;8.98;2.80;;;;;;;;;;5023678;28;20110;-61
2023/03/16 04:12:55;;;;;;;10.82;3.25;;;;;;;;;;5024180;28;20047;-64
2023/03/16 04:15:22;;;;;;;5.93;2.70;;;;;;;;;;5023404;28;20041;-62
2023/03/16 04:17:48;;;;;;;8.80;3.25;;;;;;;;;;5023223;28;20833;-61
2023/03/16 04:20:18;;;;;;;12.45;3.67;;;;;;;;;;5021505;28;20044;-62
2023/03/16 04:22:46;;;;;;;9.10;3.28;;;;;;;;;;5024878;28;20033;-57
2023/03/16 04:25:14;;;;;;;18.65;3.20;;;;;;;;;;5024974;28;20040;-60
2023/03/16 04:27:41;;;;;;;11.25;2.90;;;;;;;;;;5023803;28;20441;-61
2023/03/16 04:30:12;;;;;;;9.25;2.60;;;;;;;;;;5024878;28;20037;-60
2023/03/16 04:32:40;;;;;;;6.22;2.22;;;;;;;;;;5025005;28;20136;-60
2023/03/16 04:35:07;;;;;;;7.35;1.63;;;;;;;;;;5025625;28;20053;-62
2023/03/16 04:37:34;;;;;;;2.35;0.93;;;;;;;;;;5028438;28;20040;-62
2023/03/16 04:40:08;;;;;;;6.53;2.05;;;;;;;;;;5029061;28;20516;-62
2023/03/16 04:42:35;;;;;;;5.18;1.80;;;;;;;;;;5027070;28;21135;-61
2023/03/16 04:45:01;;;;;;;9.65;1.77;;;;;;;;;;5028455;28;20112;-63
2023/03/16 04:47:29;;;;;;;11.25;2.15;;;;;;;;;;5028994;28;20060;-59
2023/03/16 04:49:56;;;;;;;8.00;2.17;;;;;;;;;;5039151;28;20103;-61
2023/03/16 04:52:25;;;;;;;7.82;1.45;;;;;;;;;;5021429;28;20033;-60
2023/03/16 04:54:51;;;;;;;3.40;1.38;;;;;;;;;;5030571;28;20053;-60
2023/03/16 04:57:18;;;;;;;4.47;1.00;;;;;;;;;;5028086;28;20046;-60
2023/03/16 04:59:45;;;;;;;3.83;1.50;;;;;;;;;;5029287;28;20397;-60
2023/03/16 05:02:11;;;;;;;6.70;1.63;;;;;;;;;;5029366;28;20083;-63
2023/03/16 05:04:38;;;;;;;9.18;1.10;;;;;;;;;;5035599;28;20040;-63
2023/03/16 05:07:05;;;;;;;3.65;0.95;;;;;;;;;;5042082;28;20053;-60
2023/03/16 05:09:31;;;;;;;3.70;1.10;;;;;;;;;;5043439;28;20033;-61
2023/03/16 05:11:58;;;;;;;4.07;1.25;;;;;;;;;;5042200;28;20132;-61
2023/03/16 05:14:25;;;;;;;3.28;1.08;;;;;;;;;;5033115;28;20148;-62
2023/03/16 05:16:51;;;;;;;2.38;0.93;;;;;;;;;;5029106;28;20593;-59
2023/03/16 05:19:18;;;;;;;6.70;1.30;;;;;;;;;;5053975;28;20057;-62
2023/03/16 05:21:45;;;;;;;3.65;0.90;;;;;;;;;;5026409;28;20037;-62
2023/03/16 05:24:11;;;;;;;4.47;0.82;;;;;;;;;;5027308;28;20041;-60
2023/03/16 05:26:38;;;;;;;2.80;1.02;;;;;;;;;;5026795;28;20039;-59
2023/03/16 05:29:05;;;;;;;3.45;1.30;;;;;;;;;;5029430;28;20071;-62
2023/03/16 05:31:32;;;;;;;10.23;1.67;;;;;;;;;;5028374;28;20037;-62
2023/03/16 05:33:59;;;;;;;5.15;1.35;;;;;;;;;;5039823;28;20041;-59
2023/03/16 05:36:25;;;;;;;3.65;1.17;;;;;;;;;;5025470;28;20061;-61
2023/03/16 05:38:52;;;;;;;4.75;1.27;;;;;;;;;;5027013;28;20478;-61
2023/03/16 05:41:20;;;;;;;3.38;1.05;;;;;;;;;;5038716;28;20122;-60
2023/03/16 05:43:47;;;;;;;2.95;1.00;;;;;;;;;;5028423;28;20045;-62
2023/03/16 05:46:13;;;;;;;3.75;1.20;;;;;;;;;;5027973;28;20033;-61
2023/03/16 05:48:41;;;;;;;2.83;0.95;;;;;;;;;;5028523;28;20461;-61
2023/03/16 05:51:08;;;;;;;1.40;0.60;;;;;;;;;;5029046;28;20041;-60
2023/03/16 05:53:35;;;;;;;2.78;0.60;;;;;;;;;;5026416;28;20089;-61
2023/03/16 05:56:02;;;;;;;2.20;0.70;;;;;;;;;;5038912;28;20033;-61
2023/03/16 05:58:28;;;;;;;2.30;0.70;;;;;;;;;;5027782;28;20069;-62
2023/03/16 06:00:55;;;;;;;1.85;0.68;;;;;;;;;;5025891;28;20045;-61
2023/03/16 06:03:22;;;;;;;2.28;0.70;;;;;;;;;;5027666;28;20623;-59
2023/03/16 06:05:49;;;;;;;2.85;0.80;;;;;;;;;;5028589;28;20052;-62
2023/03/16 06:08:15;;;;;;;4.38;0.80;;;;;;;;;;5027913;28;20849;-60
2023/03/16 06:10:42;;;;;;;3.30;0.90;;;;;;;;;;5025869;28;20037;-62
2023/03/16 06:13:08;;;;;;;3.67;0.90;;;;;;;;;;5040244;28;20036;-62
2023/03/16 06:15:35;;;;;;;5.38;0.98;;;;;;;;;;5026907;28;20029;-59
2023/03/16 06:18:02;;;;;;;2.75;0.80;;;;;;;;;;5026875;28;20048;-62
2023/03/16 06:20:28;;;;;;;2.63;0.80;;;;;;;;;;5026923;28;20683;-62
2023/03/16 06:22:55;;;;;;;2.90;0.93;;;;;;;;;;5027901;28;20052;-62
2023/03/16 06:25:23;;;;;;;2.20;0.70;;;;;;;;;;5026425;28;20076;-62
2023/03/16 06:27:49;;;;;;;1.95;0.77;;;;;;;;;;5026555;28;20065;-60
2023/03/16 06:30:16;;;;;;;3.00;0.90;;;;;;;;;;5027207;28;20140;-63
2023/03/16 06:32:44;;;;;;;3.40;0.90;;;;;;;;;;5027020;28;20516;-62
2023/03/16 06:35:11;;;;;;;2.97;1.02;;;;;;;;;;5025097;28;20172;-62
2023/03/16 06:37:38;;;;;;;2.47;0.80;;;;;;;;;;5026611;28;20156;-59
2023/03/16 06:40:05;;;;;;;2.15;0.68;;;;;;;;;;5027007;28;20041;-60
2023/03/16 06:42:32;;;;;;;2.13;0.88;;;;;;;;;;5025406;28;20121;-63
2023/03/16 06:44:59;;;;;;;3.30;0.73;;;;;;;;;;5037020;28;20049;-60
2023/03/16 06:47:27;;;;;;;2.80;1.00;;;;;;;;;;5018072;28;20037;-60
2023/03/16 06:49:54;;;;;;;2.78;0.90;;;;;;;;;;5054126;28;20202;-62
2023/03/16 06:52:21;;;;;;;2.60;0.85;;;;;;;;;;5027816;28;20055;-61
2023/03/16 06:54:47;;;;;;;2.70;0.88;;;;;;;;;;5036422;28;20041;-60
2023/03/16 06:57:14;;;;;;;3.67;1.00;;;;;;;;;;5026053;28;20045;-59
2023/03/16 06:59:41;;;;;;;4.68;1.10;;;;;;;;;;5027149;28;20077;-62
2023/03/16 07:02:10;;;;;;;4.07;1.20;;;;;;;;;;5004610;28;20040;-59
2023/03/16 07:04:36;;;;;;;2.47;0.88;;;;;;;;;;5025417;28;20042;-59
2023/03/16 07:07:03;;;;;;;2.72;0.85;;;;;;;;;;5024362;28;20048;-60
2023/03/16 07:09:30;;;;;;;2.15;0.77;;;;;;;;;;5026329;28;20500;-60
2023/03/16 07:11:57;;;;;;;2.80;0.90;;;;;;;;;;5024981;28;20140;-60
2023/03/16 07:14:25;;;;;;;3.08;1.05;;;;;;;;;;5016958;28;20451;-61
2023/03/16 07:16:51;;;;;;;2.63;1.00;;;;;;;;;;5055822;28;20505;-61
2023/03/16 07:19:18;;;;;;;3.13;1.00;;;;;;;;;;5026127;28;20533;-60
2023/03/16 07:21:45;;;;;;;2.95;0.95;;;;;;;;;;5025618;28;20048;-62
2023/03/16 07:24:12;;;;;;;3.30;1.00;;;;;;;;;;5025634;28;20041;-60
2023/03/16 07:26:38;;;;;;;3.47;1.10;;;;;;;;;;5024368;28;20497;-59
2023/03/16 07:29:05;;;;;;;1.75;0.75;;;;;;;;;;5024976;28;20052;-59
2023/03/16 07:31:33;;;;;;;2.90;0.98;;;;;;;;;;5025258;28;20668;-59
2023/03/16 07:34:01;;;;;;;2.95;0.98;;;;;;;;;;5024823;28;20447;-60
2023/03/16 07:36:28;;;;;;;2.95;0.95;;;;;;;;;;5024601;28;20102;-61
2023/03/16 07:38:55;;;;;;;3.03;0.80;;;;;;;;;;5025449;28;20052;-61
2023/03/16 07:41:21;;;;;;;2.50;0.90;;;;;;;;;;5024382;28;20041;-59
2023/03/16 07:43:48;;;;;;;4.60;1.08;;;;;;;;;;5024836;28;20132;-59
2023/03/16 07:46:15;;;;;;;5.13;1.08;;;;;;;;;;5036501;28;20406;-59
2023/03/16 07:48:42;;;;;;;2.78;1.00;;;;;;;;;;5025783;28;20718;-59
2023/03/16 07:51:09;;;;;;;3.50;0.82;;;;;;;;;;5024398;28;20046;-60
2023/03/16 07:53:35;;;;;;;2.08;0.80;;;;;;;;;;5035730;28;20115;-59
2023/03/16 07:56:02;;;;;;;6.80;1.02;;;;;;;;;;5026343;28;20426;-60
2023/03/16 07:58:29;;;;;;;6.38;1.00;;;;;;;;;;5023221;28;20044;-62
2023/03/16 08:01:00;;;;;;;2.90;0.80;;;;;;;;;;5025102;28;20470;-63
2023/03/16 08:03:27;;;;;;;2.55;0.82;;;;;;;;;;5027068;28;20478;-59
2023/03/16 08:05:54;;;;;;;2.40;0.75;;;;;;;;;;5024455;28;21564;-62
2023/03/16 08:08:21;;;;;;;3.75;1.00;;;;;;;;;;5022884;28;20103;-62
2023/03/16 08:10:48;;;;;;;2.35;0.73;;;;;;;;;;5036390;28;20447;-59
2023/03/16 08:13:15;;;;;;;5.32;0.90;;;;;;;;;;5025332;28;20057;-63
2023/03/16 08:15:46;;;;;;;3.05;1.10;;;;;;;;;;5023715;28;20827;-63
2023/03/16 08:18:12;;;;;;;2.53;0.90;;;;;;;;;;5023599;28;20060;-64
2023/03/16 08:20:40;;;;;;;2.63;0.90;;;;;;;;;;5024719;28;20048;-61
2023/03/16 08:23:06;;;;;;;3.53;1.00;;;;;;;;;;5024588;28;20474;-64
2023/03/16 08:25:33;;;;;;;3.80;0.82;;;;;;;;;;5034529;28;20098;-61
2023/03/16 08:28:01;;;;;;;3.67;0.98;;;;;;;;;;5026130;28;20788;-60
2023/03/16 08:30:29;;;;;;;3.28;0.98;;;;;;;;;;5023015;28;20029;-61
2023/03/16 08:32:56;;;;;;;2.53;0.88;;;;;;;;;;5024843;28;20146;-61
2023/03/16 08:35:22;;;;;;;2.85;0.88;;;;;;;;;;5024643;28;21755;-61
2023/03/16 08:37:49;;;;;;;2.05;0.80;;;;;;;;;;5025057;28;20033;-59
2023/03/16 08:40:17;;;;;;;2.70;0.70;;;;;;;;;;5023528;28;20120;-61
2023/03/16 08:42:43;;;;;;;2.75;0.82;;;;;;;;;;5024532;28;21516;-60
2023/03/16 08:45:11;;;;;;;2.42;0.80;;;;;;;;;;5022902;28;20061;-61
2023/03/16 08:47:39;;;;;;;3.58;0.90;;;;;;;;;;5025026;28;20029;-62
2023/03/16 08:50:07;;;;;;;2.42;0.77;;;;;;;;;;5025288;28;20059;-62
2023/03/16 08:52:35;;;;;;;3.53;0.98;;;;;;;;;;5024815;28;20111;-58
2023/03/16 08:55:04;;;;;;;3.10;0.90;;;;;;;;;;5021753;28;20386;-61
2023/03/16 08:57:32;;;;;;;4.10;0.90;;;;;;;;;;5023501;28;20061;-60
2023/03/16 08:59:58;;;;;;;3.22;1.15;;;;;;;;;;5036192;28;20041;-63
2023/03/16 09:02:25;;;;;;;2.45;0.85;;;;;;;;;;5022804;28;20359;-59
2023/03/16 09:04:52;;;;;;;3.25;1.02;;;;;;;;;;5023631;28;20041;-59
2023/03/16 09:07:19;;;;;;;2.83;1.02;;;;;;;;;;5024777;28;20079;-62
2023/03/16 09:09:46;;;;;;;1.90;0.70;;;;;;;;;;5025876;28;20533;-59
2023/03/16 09:12:12;;;;;;;2.53;0.85;;;;;;;;;;5024909;28;20421;-62
2023/03/16 09:14:39;;;;;;;2.28;0.73;;;;;;;;;;5024307;28;20056;-61
2023/03/16 09:17:06;;;;;;;3.00;0.90;;;;;;;;;;5023961;28;20033;-59
2023/03/16 09:19:33;;;;;;;3.08;1.10;;;;;;;;;;5026602;28;20493;-60
2023/03/16 09:22:00;;;;;;;3.03;0.90;;;;;;;;;;5029261;28;20040;-62
2023/03/16 09:24:27;;;;;;;3.03;1.00;;;;;;;;;;5026451;28;20025;-59
2023/03/16 09:26:53;;;;;;;4.03;0.98;;;;;;;;;;5028950;28;20393;-62
2023/03/16 09:29:21;;;;;;;2.78;0.88;;;;;;;;;;5028087;28;20037;-61
2023/03/16 09:31:47;;;;;;;2.53;0.90;;;;;;;;;;5028707;28;20485;-60
2023/03/16 09:34:15;;;;;;;4.35;0.90;;;;;;;;;;5027249;28;20056;-60
2023/03/16 09:36:41;;;;;;;3.33;1.10;;;;;;;;;;5026350;28;20470;-60
2023/03/16 09:39:10;;;;;;;2.28;0.80;;;;;;;;;;5028342;28;20060;-60
2023/03/16 09:42:03;;;;;;;2.42;0.85;;;;;;;;;;5026558;28;20037;-60
2023/03/16 09:44:43;;;;;;;1.73;0.60;;;;;;;;;;5025967;28;20073;-60
2023/03/16 09:47:11;;;;;;;2.72;0.95;;;;;;;;;;5027778;28;20045;-60
2023/03/16 09:49:42;;;;;;;2.72;0.95;;;;;;;;;;5026730;28;20329;-60
2023/03/16 09:52:20;;;;;;;2.42;0.82;;;;;;;;;;5027908;28;20065;-62
2023/03/16 09:55:05;;;;;;;2.33;0.73;;;;;;;;;;5026507;28;20049;-63
2023/03/16 09:57:34;;;;;;;2.83;0.88;;;;;;;;;;5027036;28;20051;-62
2023/03/16 10:00:15;;;;;;;2.75;0.90;;;;;;;;;;5028870;28;20517;-62
2023/03/16 10:02:41;;;;;;;2.50;0.95;;;;;;;;;;5027211;28;20068;-62
2023/03/16 10:05:09;;;;;;;7.57;1.20;;;;;;;;;;5017033;28;20144;-61
2023/03/16 10:07:37;;;;;;;3.90;1.10;;;;;;;;;;5024433;28;20099;-61
2023/03/16 10:10:17;;;;;;;5.35;1.13;;;;;;;;;;5026785;28;21829;-62
2023/03/16 10:12:47;;;;;;;2.33;0.73;;;;;;;;;;5026292;28;20112;-61
2023/03/16 10:15:14;;;;;;;4.55;1.15;;;;;;;;;;5037166;28;20048;-61
2023/03/16 10:17:44;;;;;;;2.33;0.77;;;;;;;;;;5026047;28;20043;-62
2023/03/16 10:20:16;;;;;;;2.92;0.90;;;;;;;;;;5026074;28;20573;-61
2023/03/16 10:22:44;;;;;;;2.90;0.90;;;;;;;;;;5027056;28;20069;-61
2023/03/16 10:25:15;;;;;;;2.53;0.68;;;;;;;;;;5025040;28;20099;-64
2023/03/16 10:27:43;;;;;;;2.65;0.90;;;;;;;;;;5038613;28;20045;-64
2023/03/16 10:30:28;;;;;;;2.13;0.80;;;;;;;;;;5026198;28;20041;-62
2023/03/16 10:32:56;;;;;;;2.05;0.70;;;;;;;;;;5027341;28;20037;-66
2023/03/16 10:35:44;;;;;;;6.53;0.95;;;;;;;;;;5035178;28;20180;-63
2023/03/16 10:38:29;;;;;;;5.00;0.55;;;;;;;;;;5028553;28;20047;-62
2023/03/16 10:40:56;;;;;;;4.28;0.93;;;;;;;;;;5026039;28;20370;-63
2023/03/16 10:43:24;;;;;;;6.00;0.85;;;;;;;;;;5025830;28;20738;-62
2023/03/16 10:45:50;;;;;;;3.00;0.77;;;;;;;;;;5025033;28;21859;-62
2023/03/16 10:48:19;;;;;;;3.10;0.90;;;;;;;;;;5027147;28;20085;-63
2023/03/16 10:50:54;;;;;;;3.05;0.98;;;;;;;;;;5026903;28;20525;-62
2023/03/16 10:53:25;;;;;;;2.55;0.88;;;;;;;;;;5026120;28;20067;-63
2023/03/16 10:55:58;;;;;;;2.83;0.90;;;;;;;;;;5027445;28;20126;-61
2023/03/16 10:58:26;;;;;;;7.60;0.88;;;;;;;;;;5036746;28;20052;-63
2023/03/16 11:00:53;;;;;;;2.63;0.88;;;;;;;;;;5025987;28;20049;-61
2023/03/16 11:03:22;;;;;;;2.92;0.85;;;;;;;;;;5036958;28;20550;-62
2023/03/16 11:05:56;;;;;;;2.65;0.75;;;;;;;;;;5026394;28;20053;-62
2023/03/16 11:08:26;;;;;;;2.63;0.80;;;;;;;;;;5025008;28;20129;-60
2023/03/16 11:10:57;;;;;;;2.80;0.88;;;;;;;;;;5025126;28;20599;-60
2023/03/16 11:13:34;;;;;;;2.22;0.70;;;;;;;;;;5026108;28;20258;-62
2023/03/16 11:16:01;;;;;;;5.57;0.63;;;;;;;;;;5024956;28;22297;-62
2023/03/16 11:18:35;;;;;;;3.20;0.55;;;;;;;;;;5024934;28;20123;-61
2023/03/16 11:21:28;;;;;;;1.08;0.47;;;;;;;;;;5027170;28;20075;-60
2023/03/16 11:23:57;;;;;;;1.27;0.55;;;;;;;;;;5026822;28;20103;-60
2023/03/16 11:26:28;;;;;;;2.17;0.70;;;;;;;;;;5026015;28;20040;-60
2023/03/16 11:29:14;;;;;;;2.47;0.70;;;;;;;;;;5029612;28;20037;-61
2023/03/16 11:31:49;;;;;;;3.30;0.80;;;;;;;;;;5022509;28;20045;-59
2023/03/16 11:34:18;;;;;;;1.80;0.57;;;;;;;;;;5026960;28;20136;-58
2023/03/16 11:36:54;;;;;;;1.95;0.60;;;;;;;;;;5027518;28;20040;-60
2023/03/16 11:39:21;;;;;;;1.63;0.50;;;;;;;;;;5038418;28;20094;-60
2023/03/16 11:41:54;;;;;;;2.38;0.60;;;;;;;;;;5036871;28;20121;-60
2023/03/16 11:44:28;;;;;;;1.50;0.60;;;;;;;;;;5027528;28;20045;-62
2023/03/16 11:47:03;;;;;;;1.52;0.60;;;;;;;;;;5027107;28;20048;-62
2023/03/16 11:49:36;;;;;;;1.83;0.63;;;;;;;;;;5022904;28;20227;-62
2023/03/16 11:52:08;;;;;;;2.37;0.70;;;;;;;;;;5023601;28;20126;-59
2023/03/16 11:54:50;;;;;;;1.77;0.60;;;;;;;;;;5025245;28;20054;-60
2023/03/16 11:57:19;;;;;;;1.67;0.50;;;;;;;;;;5025958;28;20052;-59
2023/03/16 12:00:04;;;;;;;1.92;0.65;;;;;;;;;;5025588;28;20102;-64
2023/03/16 12:02:35;;;;;;;2.08;0.70;;;;;;;;;;5024089;28;20830;-59
2023/03/16 12:05:15;;;;;;;2.42;0.70;;;;;;;;;;5037829;28;20416;-60
2023/03/16 12:07:42;;;;;;;2.22;0.60;;;;;;;;;;5030710;28;20049;-61
2023/03/16 12:10:17;;;;;;;3.17;0.90;;;;;;;;;;5026487;28;20044;-60
2023/03/16 12:12:44;;;;;;;1.88;0.60;;;;;;;;;;5026059;28;20354;-61
2023/03/16 12:15:29;;;;;;;2.28;0.60;;;;;;;;;;5036148;28;20037;-62
2023/03/16 12:18:02;;;;;;;1.80;0.70;;;;;;;;;;5035109;28;20103;-65
2023/03/16 12:20:32;;;;;;;2.13;0.80;;;;;;;;;;5037491;28;20924;-61
2023/03/16 12:23:02;;;;;;;3.25;0.90;;;;;;;;;;5041962;28;20043;-60
2023/03/16 12:25:35;;;;;;;3.40;0.82;;;;;;;;;;5027527;28;20533;-58
2023/03/16 12:28:04;;;;;;;1.80;0.65;;;;;;;;;;5023862;28;20064;-60
2023/03/16 12:30:47;;;;;;;1.88;0.68;;;;;;;;;;5026328;28;20445;-59
2023/03/16 12:33:23;;;;;;;2.20;0.80;;;;;;;;;;5026317;28;20068;-60
2023/03/16 12:36:09;;;;;;;1.95;0.60;;;;;;;;;;5023351;28;20053;-61
2023/03/16 12:38:36;;;;;;;2.80;0.98;;;;;;;;;;5024708;28;20040;-60
2023/03/16 12:41:06;;;;;;;3.45;0.80;;;;;;;;;;5025494;28;20029;-62
2023/03/16 12:43:44;;;;;;;2.60;0.75;;;;;;;;;;5035899;28;20045;-60
2023/03/16 12:46:13;;;;;;;1.88;0.60;;;;;;;;;;5023168;28;21801;-60
2023/03/16 12:48:45;;;;;;;2.00;0.80;;;;;;;;;;5023733;28;20040;-59
2023/03/16 12:51:12;;;;;;;1.52;0.50;;;;;;;;;;5022808;28;20049;-60
2023/03/16 12:53:43;;;;;;;2.28;0.75;;;;;;;;;;5025105;28;20723;-60
2023/03/16 12:56:11;;;;;;;7.60;1.10;;;;;;;;;;5029297;28;20166;-62
2023/03/16 12:58:47;;;;;;;2.00;0.77;;;;;;;;;;5025831;28;20045;-62
2023/03/16 13:01:15;;;;;;;8.20;2.40;;;;;;;;;;5027593;28;20401;-60
2023/03/16 13:03:42;;;;;;;4.32;1.38;;;;;;;;;;5028314;28;20049;-61
2023/03/16 13:06:18;;;;;;;4.03;1.05;;;;;;;;;;5028189;28;20589;-60
2023/03/16 13:08:47;;;;;;;3.60;1.10;;;;;;;;;;5027783;28;20120;-59
2023/03/16 13:11:15;;;;;;;2.15;0.70;;;;;;;;;;5027091;28;20634;-59
2023/03/16 13:13:52;;;;;;;1.98;0.73;;;;;;;;;;5025976;28;20049;-62
2023/03/16 13:16:31;;;;;;;1.45;0.63;;;;;;;;;;5025867;28;20902;-63
2023/03/16 13:18:58;;;;;;;1.95;0.68;;;;;;;;;;5028227;28;20046;-60
2023/03/16 13:21:38;;;;;;;3.08;1.05;;;;;;;;;;5025283;28;20037;-62
2023/03/16 13:24:17;;;;;;;2.95;0.90;;;;;;;;;;5027399;28;20082;-62
2023/03/16 13:26:48;;;;;;;1.77;0.63;;;;;;;;;;5026506;28;20121;-61
2023/03/16 13:29:35;;;;;;;2.65;1.10;;;;;;;;;;5026862;28;20029;-60
2023/03/16 13:32:07;;;;;;;2.53;0.80;;;;;;;;;;5027361;28;20049;-61
2023/03/16 13:34:47;;;;;;;8.02;1.02;;;;;;;;;;5027231;28;20052;-61
2023/03/16 13:37:15;;;;;;;2.30;0.80;;;;;;;;;;5029054;28;20051;-63
2023/03/16 13:39:42;;;;;;;5.05;1.15;;;;;;;;;;5024720;28;20536;-60
2023/03/16 13:42:09;;;;;;;6.97;1.30;;;;;;;;;;5026942;28;21046;-61
2023/03/16 13:44:40;;;;;;;2.40;0.82;;;;;;;;;;5024009;28;20052;-62
2023/03/16 13:47:26;;;;;;;2.35;0.77;;;;;;;;;;5021564;28;20460;-62
2023/03/16 13:49:59;;;;;;;3.55;1.08;;;;;;;;;;5023422;28;20048;-62
2023/03/16 13:52:33;;;;;;;1.88;0.65;;;;;;;;;;5024092;28;20037;-61
2023/03/16 13:55:07;;;;;;;2.25;0.82;;;;;;;;;;5023488;28;20045;-61
2023/03/16 13:57:37;;;;;;;7.13;2.20;;;;;;;;;;5023698;28;20140;-60
2023/03/16 14:00:07;;;;;;;3.60;1.17;;;;;;;;;;5025925;28;20033;-62
2023/03/16 14:02:42;;;;;;;5.90;1.60;;;;;;;;;;5016567;28;20156;-61
2023/03/16 14:05:17;;;;;;;3.47;1.40;;;;;;;;;;5020033;28;20052;-62
2023/03/16 14:07:47;;;;;;;2.55;1.10;;;;;;;;;;5023611;28;20199;-60
2023/03/16 14:10:15;;;;;;;2.47;0.73;;;;;;;;;;5023634;28;20168;-62
2023/03/16 14:12:56;;;;;;;3.08;1.17;;;;;;;;;;5024050;28;20376;-60
2023/03/16 14:15:27;;;;;;;3.85;1.33;;;;;;;;;;5023561;28;20568;-61
2023/03/16 14:17:55;;;;;;;3.10;0.88;;;;;;;;;;5022464;28;20406;-61
2023/03/16 14:20:24;;;;;;;3.00;1.30;;;;;;;;;;5022271;28;20216;-63
2023/03/16 14:22:52;;;;;;;2.67;0.93;;;;;;;;;;5023337;28;20040;-59
2023/03/16 14:25:22;;;;;;;4.05;0.90;;;;;;;;;;5027350;28;20064;-61
2023/03/16 14:27:56;;;;;;;4.18;1.20;;;;;;;;;;5025454;28;20037;-60
2023/03/16 14:30:25;;;;;;;2.50;0.82;;;;;;;;;;5025814;28;20126;-62
2023/03/16 14:33:06;;;;;;;2.85;1.00;;;;;;;;;;5027557;28;20067;-61
2023/03/16 14:35:43;;;;;;;1.67;0.77;;;;;;;;;;5024557;28;20079;-63
2023/03/16 14:38:21;;;;;;;6.15;1.00;;;;;;;;;;5025658;28;20044;-63
2023/03/16 14:40:55;;;;;;;8.23;1.00;;;;;;;;;;5024380;28;20137;-61
2023/03/16 14:43:28;;;;;;;3.42;0.88;;;;;;;;;;5022637;28;20049;-62
2023/03/16 14:45:55;;;;;;;3.25;1.00;;;;;;;;;;5026890;28;20129;-64
2023/03/16 14:48:22;;;;;;;4.07;1.25;;;;;;;;;;5024618;28;20040;-64
2023/03/16 14:50:53;;;;;;;4.72;1.17;;;;;;;;;;5024882;28;20045;-62
2023/03/16 14:53:20;;;;;;;4.80;1.35;;;;;;;;;;5024870;28;20402;-60
2023/03/16 14:55:47;;;;;;;4.60;1.50;;;;;;;;;;5037071;28;20033;-64